sensor_id;sensor_type;location;lat;lon;timestamp;P1;durP1;ratioP1;P2;durP2;ratioP2
7057;SDS011;3570;43.080;25.628;2023-07-20T00:02:19;22.03;;;4.27;;
7057;SDS011;3570;43.080;25.628;2023-07-20T00:05:03;10.63;;;3.17;;
7057;SDS011;3570;43.080;25.628;2023-07-20T00:07:47;11.23;;;3.47;;
7057;SDS011;3570;43.080;25.628;2023-07-20T00:10:35;12.40;;;3.17;;
7057;SDS011;3570;43.080;25.628;2023-07-20T00:13:19;9.63;;;3.47;;
7057;SDS011;3570;43.080;25.628;2023-07-20T00:16:04;7.90;;;2.70;;
7057;SDS011;3570;43.080;25.628;2023-07-20T00:18:49;9.73;;;3.13;;
7057;SDS011;3570;43.080;25.628;2023-07-20T00:21:33;9.23;;;3.00;;
7057;SDS011;3570;43.080;25.628;2023-07-20T00:24:17;10.63;;;3.23;;
7057;SDS011;3570;43.080;25.628;2023-07-20T00:27:01;7.30;;;2.97;;
7057;SDS011;3570;43.080;25.628;2023-07-20T00:29:46;10.97;;;3.33;;
7057;SDS011;3570;43.080;25.628;2023-07-20T00:32:30;10.17;;;3.30;;
7057;SDS011;3570;43.080;25.628;2023-07-20T00:35:14;13.87;;;3.43;;
7057;SDS011;3570;43.080;25.628;2023-07-20T00:37:58;12.13;;;3.77;;
7057;SDS011;3570;43.080;25.628;2023-07-20T00:40:42;13.43;;;3.40;;
7057;SDS011;3570;43.080;25.628;2023-07-20T00:43:26;10.10;;;3.67;;
7057;SDS011;3570;43.080;25.628;2023-07-20T00:46:10;11.00;;;2.87;;
7057;SDS011;3570;43.080;25.628;2023-07-20T00:48:54;8.43;;;3.50;;
7057;SDS011;3570;43.080;25.628;2023-07-20T00:51:40;16.70;;;3.80;;
7057;SDS011;3570;43.080;25.628;2023-07-20T00:54:25;11.10;;;3.83;;
7057;SDS011;3570;43.080;25.628;2023-07-20T00:57:09;8.57;;;3.57;;
7057;SDS011;3570;43.080;25.628;2023-07-20T00:59:53;9.87;;;3.70;;
7057;SDS011;3570;43.080;25.628;2023-07-20T01:02:37;14.37;;;5.07;;
7057;SDS011;3570;43.080;25.628;2023-07-20T01:05:21;11.67;;;3.80;;
7057;SDS011;3570;43.080;25.628;2023-07-20T01:08:17;11.03;;;4.70;;
7057;SDS011;3570;43.080;25.628;2023-07-20T01:11:21;13.30;;;5.10;;
7057;SDS011;3570;43.080;25.628;2023-07-20T01:14:12;7.80;;;3.57;;
7057;SDS011;3570;43.080;25.628;2023-07-20T01:16:57;9.90;;;3.60;;
7057;SDS011;3570;43.080;25.628;2023-07-20T01:19:41;12.23;;;3.27;;
7057;SDS011;3570;43.080;25.628;2023-07-20T01:31:55;11.80;;;3.50;;
7057;SDS011;3570;43.080;25.628;2023-07-20T01:34:41;12.00;;;2.83;;
7057;SDS011;3570;43.080;25.628;2023-07-20T01:37:26;12.07;;;2.93;;
7057;SDS011;3570;43.080;25.628;2023-07-20T01:40:13;7.27;;;3.10;;
7057;SDS011;3570;43.080;25.628;2023-07-20T01:42:58;9.90;;;3.33;;
7057;SDS011;3570;43.080;25.628;2023-07-20T01:45:43;22.73;;;3.53;;
7057;SDS011;3570;43.080;25.628;2023-07-20T01:48:28;8.20;;;3.83;;
7057;SDS011;3570;43.080;25.628;2023-07-20T01:51:12;9.63;;;2.97;;
7057;SDS011;3570;43.080;25.628;2023-07-20T01:53:56;9.33;;;3.47;;
7057;SDS011;3570;43.080;25.628;2023-07-20T02:00:21;11.50;;;3.53;;
7057;SDS011;3570;43.080;25.628;2023-07-20T02:03:07;18.20;;;3.70;;
7057;SDS011;3570;43.080;25.628;2023-07-20T02:05:52;8.10;;;3.77;;
7057;SDS011;3570;43.080;25.628;2023-07-20T02:08:36;14.10;;;3.87;;
7057;SDS011;3570;43.080;25.628;2023-07-20T02:11:20;10.73;;;3.60;;
7057;SDS011;3570;43.080;25.628;2023-07-20T02:14:04;8.23;;;3.80;;
7057;SDS011;3570;43.080;25.628;2023-07-20T02:16:48;15.23;;;3.60;;
7057;SDS011;3570;43.080;25.628;2023-07-20T02:19:36;13.30;;;3.67;;
7057;SDS011;3570;43.080;25.628;2023-07-20T02:22:21;12.90;;;3.70;;
7057;SDS011;3570;43.080;25.628;2023-07-20T02:25:05;5.00;;;2.90;;
7057;SDS011;3570;43.080;25.628;2023-07-20T02:27:50;8.10;;;3.77;;
7057;SDS011;3570;43.080;25.628;2023-07-20T02:30:37;10.70;;;3.20;;
7057;SDS011;3570;43.080;25.628;2023-07-20T02:33:22;6.73;;;3.43;;
7057;SDS011;3570;43.080;25.628;2023-07-20T02:36:06;13.63;;;3.30;;
7057;SDS011;3570;43.080;25.628;2023-07-20T02:38:50;10.97;;;3.40;;
7057;SDS011;3570;43.080;25.628;2023-07-20T02:41:34;13.40;;;3.73;;
7057;SDS011;3570;43.080;25.628;2023-07-20T02:44:18;6.57;;;3.33;;
7057;SDS011;3570;43.080;25.628;2023-07-20T02:47:02;11.10;;;3.60;;
7057;SDS011;3570;43.080;25.628;2023-07-20T02:49:46;8.10;;;3.40;;
7057;SDS011;3570;43.080;25.628;2023-07-20T02:52:42;8.50;;;3.60;;
7057;SDS011;3570;43.080;25.628;2023-07-20T02:55:26;12.00;;;3.33;;
7057;SDS011;3570;43.080;25.628;2023-07-20T02:58:10;10.20;;;3.67;;
7057;SDS011;3570;43.080;25.628;2023-07-20T03:00:54;11.93;;;4.00;;
7057;SDS011;3570;43.080;25.628;2023-07-20T03:03:37;12.80;;;3.13;;
7057;SDS011;3570;43.080;25.628;2023-07-20T03:06:22;6.00;;;3.77;;
7057;SDS011;3570;43.080;25.628;2023-07-20T03:09:06;15.97;;;4.33;;
7057;SDS011;3570;43.080;25.628;2023-07-20T03:11:50;7.27;;;3.50;;
7057;SDS011;3570;43.080;25.628;2023-07-20T03:14:34;18.37;;;4.40;;
7057;SDS011;3570;43.080;25.628;2023-07-20T03:17:18;15.53;;;5.03;;
7057;SDS011;3570;43.080;25.628;2023-07-20T03:20:04;6.73;;;4.63;;
7057;SDS011;3570;43.080;25.628;2023-07-20T03:22:52;8.73;;;5.10;;
7057;SDS011;3570;43.080;25.628;2023-07-20T03:25:36;13.13;;;6.07;;
7057;SDS011;3570;43.080;25.628;2023-07-20T03:28:21;19.63;;;5.87;;
7057;SDS011;3570;43.080;25.628;2023-07-20T03:31:05;12.57;;;5.20;;
7057;SDS011;3570;43.080;25.628;2023-07-20T03:37:02;11.00;;;5.03;;
7057;SDS011;3570;43.080;25.628;2023-07-20T03:39:48;11.27;;;4.63;;
7057;SDS011;3570;43.080;25.628;2023-07-20T03:42:32;11.63;;;4.43;;
7057;SDS011;3570;43.080;25.628;2023-07-20T03:45:16;11.43;;;4.27;;
7057;SDS011;3570;43.080;25.628;2023-07-20T03:48:00;12.43;;;3.93;;
7057;SDS011;3570;43.080;25.628;2023-07-20T03:50:44;10.83;;;4.17;;
7057;SDS011;3570;43.080;25.628;2023-07-20T03:53:29;9.03;;;3.57;;
7057;SDS011;3570;43.080;25.628;2023-07-20T03:56:14;14.17;;;4.17;;
7057;SDS011;3570;43.080;25.628;2023-07-20T03:58:57;9.00;;;3.87;;
7057;SDS011;3570;43.080;25.628;2023-07-20T04:01:42;11.77;;;4.23;;
7057;SDS011;3570;43.080;25.628;2023-07-20T04:04:25;10.07;;;3.77;;
7057;SDS011;3570;43.080;25.628;2023-07-20T04:07:09;11.57;;;4.40;;
7057;SDS011;3570;43.080;25.628;2023-07-20T04:09:53;14.10;;;3.87;;
7057;SDS011;3570;43.080;25.628;2023-07-20T04:12:37;8.57;;;4.03;;
7057;SDS011;3570;43.080;25.628;2023-07-20T04:15:21;11.43;;;4.50;;
7057;SDS011;3570;43.080;25.628;2023-07-20T04:18:05;12.27;;;4.17;;
7057;SDS011;3570;43.080;25.628;2023-07-20T04:20:49;15.30;;;4.23;;
7057;SDS011;3570;43.080;25.628;2023-07-20T04:23:33;12.37;;;4.17;;
7057;SDS011;3570;43.080;25.628;2023-07-20T04:26:17;9.07;;;4.00;;
7057;SDS011;3570;43.080;25.628;2023-07-20T04:29:01;12.27;;;4.17;;
7057;SDS011;3570;43.080;25.628;2023-07-20T04:31:45;9.43;;;3.97;;
7057;SDS011;3570;43.080;25.628;2023-07-20T04:34:29;12.83;;;4.00;;
7057;SDS011;3570;43.080;25.628;2023-07-20T04:37:12;11.50;;;3.87;;
7057;SDS011;3570;43.080;25.628;2023-07-20T04:39:57;11.63;;;4.60;;
7057;SDS011;3570;43.080;25.628;2023-07-20T04:42:41;20.13;;;6.43;;
7057;SDS011;3570;43.080;25.628;2023-07-20T04:45:25;13.43;;;5.70;;
7057;SDS011;3570;43.080;25.628;2023-07-20T04:48:13;14.33;;;6.50;;
7057;SDS011;3570;43.080;25.628;2023-07-20T04:50:58;15.30;;;5.27;;
7057;SDS011;3570;43.080;25.628;2023-07-20T04:53:42;16.63;;;5.27;;
7057;SDS011;3570;43.080;25.628;2023-07-20T04:56:26;12.23;;;6.17;;
7057;SDS011;3570;43.080;25.628;2023-07-20T04:59:10;16.90;;;8.10;;
7057;SDS011;3570;43.080;25.628;2023-07-20T05:01:54;14.17;;;5.70;;
7057;SDS011;3570;43.080;25.628;2023-07-20T05:04:38;16.03;;;7.27;;
7057;SDS011;3570;43.080;25.628;2023-07-20T05:07:22;15.07;;;5.20;;
7057;SDS011;3570;43.080;25.628;2023-07-20T05:10:06;11.20;;;4.63;;
7057;SDS011;3570;43.080;25.628;2023-07-20T05:12:51;11.73;;;4.87;;
7057;SDS011;3570;43.080;25.628;2023-07-20T05:15:35;8.40;;;4.70;;
7057;SDS011;3570;43.080;25.628;2023-07-20T05:18:19;11.77;;;5.23;;
7057;SDS011;3570;43.080;25.628;2023-07-20T05:21:05;12.00;;;4.40;;
7057;SDS011;3570;43.080;25.628;2023-07-20T05:23:50;11.93;;;4.90;;
7057;SDS011;3570;43.080;25.628;2023-07-20T05:26:34;10.73;;;4.93;;
7057;SDS011;3570;43.080;25.628;2023-07-20T05:29:18;7.93;;;4.30;;
7057;SDS011;3570;43.080;25.628;2023-07-20T05:32:02;10.53;;;4.67;;
7057;SDS011;3570;43.080;25.628;2023-07-20T05:34:47;14.87;;;5.03;;
7057;SDS011;3570;43.080;25.628;2023-07-20T05:37:31;8.47;;;3.80;;
7057;SDS011;3570;43.080;25.628;2023-07-20T05:40:14;8.30;;;4.20;;
7057;SDS011;3570;43.080;25.628;2023-07-20T05:43:02;10.30;;;4.97;;
7057;SDS011;3570;43.080;25.628;2023-07-20T05:45:46;13.40;;;5.23;;
7057;SDS011;3570;43.080;25.628;2023-07-20T05:48:31;8.27;;;4.27;;
7057;SDS011;3570;43.080;25.628;2023-07-20T05:51:15;12.90;;;4.80;;
7057;SDS011;3570;43.080;25.628;2023-07-20T05:53:59;12.17;;;4.80;;
7057;SDS011;3570;43.080;25.628;2023-07-20T05:56:43;9.63;;;4.23;;
7057;SDS011;3570;43.080;25.628;2023-07-20T05:59:28;7.70;;;3.87;;
7057;SDS011;3570;43.080;25.628;2023-07-20T06:02:15;9.10;;;4.23;;
7057;SDS011;3570;43.080;25.628;2023-07-20T06:04:59;14.77;;;4.40;;
7057;SDS011;3570;43.080;25.628;2023-07-20T06:07:43;11.17;;;3.93;;
7057;SDS011;3570;43.080;25.628;2023-07-20T06:10:27;17.10;;;4.53;;
7057;SDS011;3570;43.080;25.628;2023-07-20T06:13:11;13.70;;;5.10;;
7057;SDS011;3570;43.080;25.628;2023-07-20T06:15:55;11.80;;;4.70;;
7057;SDS011;3570;43.080;25.628;2023-07-20T06:18:39;9.17;;;5.03;;
7057;SDS011;3570;43.080;25.628;2023-07-20T06:21:22;22.53;;;4.93;;
7057;SDS011;3570;43.080;25.628;2023-07-20T06:24:06;11.77;;;4.50;;
7057;SDS011;3570;43.080;25.628;2023-07-20T06:26:50;9.00;;;4.03;;
7057;SDS011;3570;43.080;25.628;2023-07-20T06:29:34;15.27;;;5.37;;
7057;SDS011;3570;43.080;25.628;2023-07-20T06:32:18;15.07;;;4.83;;
7057;SDS011;3570;43.080;25.628;2023-07-20T06:35:02;14.67;;;5.20;;
7057;SDS011;3570;43.080;25.628;2023-07-20T06:37:46;9.53;;;4.70;;
7057;SDS011;3570;43.080;25.628;2023-07-20T06:40:30;12.63;;;4.67;;
7057;SDS011;3570;43.080;25.628;2023-07-20T06:43:14;20.50;;;5.03;;
7057;SDS011;3570;43.080;25.628;2023-07-20T06:45:59;13.10;;;5.17;;
7057;SDS011;3570;43.080;25.628;2023-07-20T06:48:43;14.87;;;4.50;;
7057;SDS011;3570;43.080;25.628;2023-07-20T06:51:27;18.33;;;5.30;;
7057;SDS011;3570;43.080;25.628;2023-07-20T06:54:11;11.23;;;3.60;;
7057;SDS011;3570;43.080;25.628;2023-07-20T06:56:55;8.00;;;4.00;;
7057;SDS011;3570;43.080;25.628;2023-07-20T06:59:40;12.30;;;4.47;;
7057;SDS011;3570;43.080;25.628;2023-07-20T07:02:24;4.73;;;2.93;;
7057;SDS011;3570;43.080;25.628;2023-07-20T07:05:08;8.33;;;3.17;;
7057;SDS011;3570;43.080;25.628;2023-07-20T07:07:52;12.23;;;3.33;;
7057;SDS011;3570;43.080;25.628;2023-07-20T07:10:36;7.13;;;2.90;;
7057;SDS011;3570;43.080;25.628;2023-07-20T07:13:20;4.93;;;2.87;;
7057;SDS011;3570;43.080;25.628;2023-07-20T07:16:04;5.27;;;2.50;;
7057;SDS011;3570;43.080;25.628;2023-07-20T07:18:49;8.40;;;2.73;;
7057;SDS011;3570;43.080;25.628;2023-07-20T07:21:34;3.87;;;2.33;;
7057;SDS011;3570;43.080;25.628;2023-07-20T07:24:18;7.97;;;3.30;;
7057;SDS011;3570;43.080;25.628;2023-07-20T07:27:03;7.20;;;3.37;;
7057;SDS011;3570;43.080;25.628;2023-07-20T07:29:47;4.27;;;2.67;;
7057;SDS011;3570;43.080;25.628;2023-07-20T07:32:33;3.70;;;2.47;;
7057;SDS011;3570;43.080;25.628;2023-07-20T07:35:17;7.67;;;3.00;;
7057;SDS011;3570;43.080;25.628;2023-07-20T07:38:01;6.40;;;2.77;;
7057;SDS011;3570;43.080;25.628;2023-07-20T07:40:45;4.37;;;2.73;;
7057;SDS011;3570;43.080;25.628;2023-07-20T07:43:29;5.77;;;2.70;;
7057;SDS011;3570;43.080;25.628;2023-07-20T07:46:13;7.83;;;2.70;;
7057;SDS011;3570;43.080;25.628;2023-07-20T07:48:57;4.93;;;3.10;;
7057;SDS011;3570;43.080;25.628;2023-07-20T07:51:41;4.03;;;2.38;;
7057;SDS011;3570;43.080;25.628;2023-07-20T07:54:26;4.65;;;2.85;;
7057;SDS011;3570;43.080;25.628;2023-07-20T07:57:10;13.43;;;2.90;;
7057;SDS011;3570;43.080;25.628;2023-07-20T07:59:54;6.15;;;2.72;;
7057;SDS011;3570;43.080;25.628;2023-07-20T08:02:38;5.03;;;2.45;;
7057;SDS011;3570;43.080;25.628;2023-07-20T08:05:21;5.53;;;2.55;;
7057;SDS011;3570;43.080;25.628;2023-07-20T08:08:05;6.18;;;3.28;;
7057;SDS011;3570;43.080;25.628;2023-07-20T08:10:50;3.72;;;2.60;;
7057;SDS011;3570;43.080;25.628;2023-07-20T08:13:37;3.33;;;2.55;;
7057;SDS011;3570;43.080;25.628;2023-07-20T08:16:21;4.13;;;2.92;;
7057;SDS011;3570;43.080;25.628;2023-07-20T08:19:05;4.47;;;2.45;;
7057;SDS011;3570;43.080;25.628;2023-07-20T08:21:49;5.40;;;2.50;;
7057;SDS011;3570;43.080;25.628;2023-07-20T08:24:33;7.22;;;3.85;;
7057;SDS011;3570;43.080;25.628;2023-07-20T08:27:17;3.38;;;2.10;;
7057;SDS011;3570;43.080;25.628;2023-07-20T08:30:01;4.78;;;2.40;;
7057;SDS011;3570;43.080;25.628;2023-07-20T08:32:46;6.75;;;2.72;;
7057;SDS011;3570;43.080;25.628;2023-07-20T08:35:31;5.55;;;2.50;;
7057;SDS011;3570;43.080;25.628;2023-07-20T08:38:14;3.60;;;2.28;;
7057;SDS011;3570;43.080;25.628;2023-07-20T08:40:58;5.53;;;2.45;;
7057;SDS011;3570;43.080;25.628;2023-07-20T08:43:44;3.55;;;2.40;;
7057;SDS011;3570;43.080;25.628;2023-07-20T08:46:30;7.63;;;2.50;;
7057;SDS011;3570;43.080;25.628;2023-07-20T08:49:15;3.97;;;2.75;;
7057;SDS011;3570;43.080;25.628;2023-07-20T08:52:04;6.55;;;2.72;;
7057;SDS011;3570;43.080;25.628;2023-07-20T08:54:48;3.88;;;2.47;;
7057;SDS011;3570;43.080;25.628;2023-07-20T08:57:33;3.92;;;2.58;;
7057;SDS011;3570;43.080;25.628;2023-07-20T09:00:17;3.83;;;2.63;;
7057;SDS011;3570;43.080;25.628;2023-07-20T09:03:04;3.28;;;2.90;;
7057;SDS011;3570;43.080;25.628;2023-07-20T09:05:48;6.82;;;2.50;;
7057;SDS011;3570;43.080;25.628;2023-07-20T09:08:33;3.53;;;2.65;;
7057;SDS011;3570;43.080;25.628;2023-07-20T09:11:17;4.78;;;2.50;;
7057;SDS011;3570;43.080;25.628;2023-07-20T09:14:05;3.75;;;2.45;;
7057;SDS011;3570;43.080;25.628;2023-07-20T09:16:51;7.18;;;2.85;;
7057;SDS011;3570;43.080;25.628;2023-07-20T09:19:38;5.63;;;2.50;;
7057;SDS011;3570;43.080;25.628;2023-07-20T09:22:21;4.35;;;2.58;;
7057;SDS011;3570;43.080;25.628;2023-07-20T09:25:06;2.88;;;2.58;;
7057;SDS011;3570;43.080;25.628;2023-07-20T09:27:51;4.68;;;2.90;;
7057;SDS011;3570;43.080;25.628;2023-07-20T09:30:35;6.53;;;2.88;;
7057;SDS011;3570;43.080;25.628;2023-07-20T09:33:22;5.57;;;3.30;;
7057;SDS011;3570;43.080;25.628;2023-07-20T09:36:07;5.70;;;3.08;;
7057;SDS011;3570;43.080;25.628;2023-07-20T09:38:55;6.13;;;3.35;;
7057;SDS011;3570;43.080;25.628;2023-07-20T09:41:39;5.10;;;3.00;;
7057;SDS011;3570;43.080;25.628;2023-07-20T09:44:27;6.13;;;3.33;;
7057;SDS011;3570;43.080;25.628;2023-07-20T09:47:12;4.30;;;3.00;;
7057;SDS011;3570;43.080;25.628;2023-07-20T09:49:59;7.15;;;3.08;;
7057;SDS011;3570;43.080;25.628;2023-07-20T09:52:45;7.95;;;3.38;;
7057;SDS011;3570;43.080;25.628;2023-07-20T09:55:30;3.97;;;2.90;;
7057;SDS011;3570;43.080;25.628;2023-07-20T09:58:16;3.95;;;2.75;;
7057;SDS011;3570;43.080;25.628;2023-07-20T10:01:01;9.82;;;2.90;;
7057;SDS011;3570;43.080;25.628;2023-07-20T10:03:51;6.63;;;2.67;;
7057;SDS011;3570;43.080;25.628;2023-07-20T10:06:39;6.43;;;3.20;;
7057;SDS011;3570;43.080;25.628;2023-07-20T10:09:26;5.15;;;3.17;;
7057;SDS011;3570;43.080;25.628;2023-07-20T10:12:12;8.38;;;3.17;;
7057;SDS011;3570;43.080;25.628;2023-07-20T10:15:06;5.38;;;2.80;;
7057;SDS011;3570;43.080;25.628;2023-07-20T10:18:18;5.85;;;3.10;;
7057;SDS011;3570;43.080;25.628;2023-07-20T10:21:12;5.50;;;3.00;;
7057;SDS011;3570;43.080;25.628;2023-07-20T10:23:57;4.22;;;3.10;;
7057;SDS011;3570;43.080;25.628;2023-07-20T10:26:41;5.80;;;2.80;;
7057;SDS011;3570;43.080;25.628;2023-07-20T10:29:25;6.78;;;3.30;;
7057;SDS011;3570;43.080;25.628;2023-07-20T10:32:11;4.65;;;3.10;;
7057;SDS011;3570;43.080;25.628;2023-07-20T10:34:55;5.13;;;2.80;;
7057;SDS011;3570;43.080;25.628;2023-07-20T10:40:43;8.38;;;3.25;;
7057;SDS011;3570;43.080;25.628;2023-07-20T10:43:41;7.68;;;3.42;;
7057;SDS011;3570;43.080;25.628;2023-07-20T10:46:33;6.30;;;3.78;;
7057;SDS011;3570;43.080;25.628;2023-07-20T10:49:24;5.70;;;3.40;;
7057;SDS011;3570;43.080;25.628;2023-07-20T10:52:10;5.32;;;3.55;;
7057;SDS011;3570;43.080;25.628;2023-07-20T10:54:54;10.07;;;3.05;;
7057;SDS011;3570;43.080;25.628;2023-07-20T10:57:39;3.97;;;3.10;;
7057;SDS011;3570;43.080;25.628;2023-07-20T11:00:23;5.50;;;3.00;;
7057;SDS011;3570;43.080;25.628;2023-07-20T11:03:07;8.10;;;3.45;;
7057;SDS011;3570;43.080;25.628;2023-07-20T11:05:51;6.57;;;3.70;;
7057;SDS011;3570;43.080;25.628;2023-07-20T11:08:39;7.00;;;3.63;;
7057;SDS011;3570;43.080;25.628;2023-07-20T11:11:30;8.80;;;3.33;;
7057;SDS011;3570;43.080;25.628;2023-07-20T11:14:21;4.20;;;3.45;;
7057;SDS011;3570;43.080;25.628;2023-07-20T11:17:15;10.60;;;3.95;;
7057;SDS011;3570;43.080;25.628;2023-07-20T11:20:04;7.25;;;3.10;;
7057;SDS011;3570;43.080;25.628;2023-07-20T11:22:48;5.53;;;3.40;;
7057;SDS011;3570;43.080;25.628;2023-07-20T11:25:39;4.85;;;3.42;;
7057;SDS011;3570;43.080;25.628;2023-07-20T11:28:23;6.47;;;3.58;;
7057;SDS011;3570;43.080;25.628;2023-07-20T11:31:08;10.20;;;3.45;;
7057;SDS011;3570;43.080;25.628;2023-07-20T11:33:52;6.07;;;3.35;;
7057;SDS011;3570;43.080;25.628;2023-07-20T11:36:36;6.70;;;3.00;;
7057;SDS011;3570;43.080;25.628;2023-07-20T11:39:21;6.22;;;3.10;;
7057;SDS011;3570;43.080;25.628;2023-07-20T11:42:06;5.15;;;3.30;;
7057;SDS011;3570;43.080;25.628;2023-07-20T11:44:53;7.35;;;3.88;;
7057;SDS011;3570;43.080;25.628;2023-07-20T11:47:40;5.70;;;3.38;;
7057;SDS011;3570;43.080;25.628;2023-07-20T11:50:28;4.90;;;3.28;;
7057;SDS011;3570;43.080;25.628;2023-07-20T11:53:12;6.38;;;3.42;;
7057;SDS011;3570;43.080;25.628;2023-07-20T11:55:57;5.75;;;3.53;;
7057;SDS011;3570;43.080;25.628;2023-07-20T11:58:43;6.13;;;3.95;;
7057;SDS011;3570;43.080;25.628;2023-07-20T12:01:29;6.45;;;3.78;;
7057;SDS011;3570;43.080;25.628;2023-07-20T12:04:15;6.55;;;3.30;;
7057;SDS011;3570;43.080;25.628;2023-07-20T12:06:59;6.90;;;3.72;;
7057;SDS011;3570;43.080;25.628;2023-07-20T12:09:44;6.82;;;3.35;;
7057;SDS011;3570;43.080;25.628;2023-07-20T12:12:31;4.55;;;3.38;;
7057;SDS011;3570;43.080;25.628;2023-07-20T12:15:25;4.72;;;2.83;;
7057;SDS011;3570;43.080;25.628;2023-07-20T12:18:10;6.82;;;3.10;;
7057;SDS011;3570;43.080;25.628;2023-07-20T12:20:58;4.03;;;2.92;;
7057;SDS011;3570;43.080;25.628;2023-07-20T12:23:43;6.45;;;3.13;;
7057;SDS011;3570;43.080;25.628;2023-07-20T12:26:28;4.82;;;2.90;;
7057;SDS011;3570;43.080;25.628;2023-07-20T12:29:13;3.88;;;2.85;;
7057;SDS011;3570;43.080;25.628;2023-07-20T12:31:57;5.82;;;2.80;;
7057;SDS011;3570;43.080;25.628;2023-07-20T12:34:41;4.13;;;2.60;;
7057;SDS011;3570;43.080;25.628;2023-07-20T12:37:26;6.53;;;3.10;;
7057;SDS011;3570;43.080;25.628;2023-07-20T12:40:10;5.22;;;2.72;;
7057;SDS011;3570;43.080;25.628;2023-07-20T12:42:55;5.07;;;2.45;;
7057;SDS011;3570;43.080;25.628;2023-07-20T12:45:39;6.20;;;2.85;;
7057;SDS011;3570;43.080;25.628;2023-07-20T12:48:24;6.43;;;3.75;;
7057;SDS011;3570;43.080;25.628;2023-07-20T12:51:09;3.67;;;2.67;;
7057;SDS011;3570;43.080;25.628;2023-07-20T12:53:54;4.32;;;2.75;;
7057;SDS011;3570;43.080;25.628;2023-07-20T12:56:38;7.00;;;3.03;;
7057;SDS011;3570;43.080;25.628;2023-07-20T12:59:22;4.68;;;2.85;;
7057;SDS011;3570;43.080;25.628;2023-07-20T13:02:05;5.38;;;3.13;;
7057;SDS011;3570;43.080;25.628;2023-07-20T13:04:53;8.20;;;2.70;;
7057;SDS011;3570;43.080;25.628;2023-07-20T13:07:39;4.00;;;2.78;;
7057;SDS011;3570;43.080;25.628;2023-07-20T13:10:27;5.38;;;2.70;;
7057;SDS011;3570;43.080;25.628;2023-07-20T13:13:12;10.43;;;4.25;;
7057;SDS011;3570;43.080;25.628;2023-07-20T13:15:56;7.55;;;5.38;;
7057;SDS011;3570;43.080;25.628;2023-07-20T13:18:40;11.60;;;4.20;;
7057;SDS011;3570;43.080;25.628;2023-07-20T13:21:24;4.57;;;2.45;;
7057;SDS011;3570;43.080;25.628;2023-07-20T13:24:08;3.88;;;2.47;;
7057;SDS011;3570;43.080;25.628;2023-07-20T13:26:52;6.18;;;2.42;;
7057;SDS011;3570;43.080;25.628;2023-07-20T13:29:36;5.75;;;2.60;;
7057;SDS011;3570;43.080;25.628;2023-07-20T13:32:20;2.72;;;2.30;;
7057;SDS011;3570;43.080;25.628;2023-07-20T13:35:04;5.60;;;2.20;;
7057;SDS011;3570;43.080;25.628;2023-07-20T13:37:48;3.95;;;2.08;;
7057;SDS011;3570;43.080;25.628;2023-07-20T13:40:33;5.97;;;2.40;;
7057;SDS011;3570;43.080;25.628;2023-07-20T13:43:17;6.38;;;2.30;;
7057;SDS011;3570;43.080;25.628;2023-07-20T13:46:01;4.03;;;2.50;;
7057;SDS011;3570;43.080;25.628;2023-07-20T13:48:45;4.07;;;2.30;;
7057;SDS011;3570;43.080;25.628;2023-07-20T13:51:29;5.05;;;2.60;;
7057;SDS011;3570;43.080;25.628;2023-07-20T13:54:13;4.28;;;2.50;;
7057;SDS011;3570;43.080;25.628;2023-07-20T13:56:57;3.80;;;2.25;;
7057;SDS011;3570;43.080;25.628;2023-07-20T13:59:41;5.53;;;2.38;;
7057;SDS011;3570;43.080;25.628;2023-07-20T14:02:25;4.07;;;2.10;;
7057;SDS011;3570;43.080;25.628;2023-07-20T14:05:09;6.78;;;2.30;;
7057;SDS011;3570;43.080;25.628;2023-07-20T14:07:54;6.55;;;2.60;;
7057;SDS011;3570;43.080;25.628;2023-07-20T14:10:38;3.80;;;2.22;;
7057;SDS011;3570;43.080;25.628;2023-07-20T14:13:22;13.32;;;9.23;;
7057;SDS011;3570;43.080;25.628;2023-07-20T14:16:05;19.02;;;15.77;;
7057;SDS011;3570;43.080;25.628;2023-07-20T14:18:49;8.02;;;4.40;;
7057;SDS011;3570;43.080;25.628;2023-07-20T14:21:33;3.45;;;2.20;;
7057;SDS011;3570;43.080;25.628;2023-07-20T14:24:17;6.57;;;3.20;;
7057;SDS011;3570;43.080;25.628;2023-07-20T14:27:01;3.70;;;2.20;;
7057;SDS011;3570;43.080;25.628;2023-07-20T14:29:45;3.03;;;2.70;;
7057;SDS011;3570;43.080;25.628;2023-07-20T14:32:29;4.35;;;3.17;;
7057;SDS011;3570;43.080;25.628;2023-07-20T14:35:13;4.50;;;2.47;;
7057;SDS011;3570;43.080;25.628;2023-07-20T14:37:57;4.97;;;2.30;;
7057;SDS011;3570;43.080;25.628;2023-07-20T14:40:42;9.00;;;2.92;;
7057;SDS011;3570;43.080;25.628;2023-07-20T14:43:26;7.57;;;2.65;;
7057;SDS011;3570;43.080;25.628;2023-07-20T14:46:10;5.18;;;2.30;;
7057;SDS011;3570;43.080;25.628;2023-07-20T14:48:54;3.25;;;2.63;;
7057;SDS011;3570;43.080;25.628;2023-07-20T14:51:39;3.05;;;2.40;;
7057;SDS011;3570;43.080;25.628;2023-07-20T14:54:27;6.55;;;2.63;;
7057;SDS011;3570;43.080;25.628;2023-07-20T14:57:11;4.22;;;2.60;;
7057;SDS011;3570;43.080;25.628;2023-07-20T14:59:57;2.83;;;2.10;;
7057;SDS011;3570;43.080;25.628;2023-07-20T15:02:41;6.30;;;2.20;;
7057;SDS011;3570;43.080;25.628;2023-07-20T15:05:26;4.03;;;2.75;;
7057;SDS011;3570;43.080;25.628;2023-07-20T15:08:10;5.30;;;2.50;;
7057;SDS011;3570;43.080;25.628;2023-07-20T15:10:54;5.55;;;2.83;;
7057;SDS011;3570;43.080;25.628;2023-07-20T15:13:38;6.40;;;2.70;;
7057;SDS011;3570;43.080;25.628;2023-07-20T15:16:25;4.28;;;2.40;;
7057;SDS011;3570;43.080;25.628;2023-07-20T15:19:10;6.07;;;2.95;;
7057;SDS011;3570;43.080;25.628;2023-07-20T15:21:57;6.05;;;3.00;;
7057;SDS011;3570;43.080;25.628;2023-07-20T15:24:41;8.40;;;3.13;;
7057;SDS011;3570;43.080;25.628;2023-07-20T15:27:25;6.00;;;3.00;;
7057;SDS011;3570;43.080;25.628;2023-07-20T15:30:09;5.10;;;2.63;;
7057;SDS011;3570;43.080;25.628;2023-07-20T15:32:54;3.55;;;2.50;;
7057;SDS011;3570;43.080;25.628;2023-07-20T15:35:40;7.10;;;2.47;;
7057;SDS011;3570;43.080;25.628;2023-07-20T15:38:24;3.05;;;2.15;;
7057;SDS011;3570;43.080;25.628;2023-07-20T15:41:09;6.00;;;3.03;;
7057;SDS011;3570;43.080;25.628;2023-07-20T15:43:54;5.70;;;2.50;;
7057;SDS011;3570;43.080;25.628;2023-07-20T15:49:25;3.78;;;2.22;;
7057;SDS011;3570;43.080;25.628;2023-07-20T15:52:11;5.55;;;2.58;;
7057;SDS011;3570;43.080;25.628;2023-07-20T15:54:57;4.50;;;2.35;;
7057;SDS011;3570;43.080;25.628;2023-07-20T15:57:41;6.45;;;2.65;;
7057;SDS011;3570;43.080;25.628;2023-07-20T16:00:25;5.53;;;2.72;;
7057;SDS011;3570;43.080;25.628;2023-07-20T16:03:10;2.80;;;2.17;;
7057;SDS011;3570;43.080;25.628;2023-07-20T16:05:55;4.20;;;2.13;;
7057;SDS011;3570;43.080;25.628;2023-07-20T16:08:39;4.95;;;2.83;;
7057;SDS011;3570;43.080;25.628;2023-07-20T16:11:23;6.53;;;2.38;;
7057;SDS011;3570;43.080;25.628;2023-07-20T16:14:07;9.43;;;2.30;;
7057;SDS011;3570;43.080;25.628;2023-07-20T16:16:51;5.50;;;3.17;;
7057;SDS011;3570;43.080;25.628;2023-07-20T16:19:35;4.00;;;2.25;;
7057;SDS011;3570;43.080;25.628;2023-07-20T16:22:19;3.30;;;2.38;;
7057;SDS011;3570;43.080;25.628;2023-07-20T16:25:04;9.23;;;2.92;;
7057;SDS011;3570;43.080;25.628;2023-07-20T16:27:48;6.00;;;3.40;;
7057;SDS011;3570;43.080;25.628;2023-07-20T16:30:32;6.97;;;2.92;;
7057;SDS011;3570;43.080;25.628;2023-07-20T16:33:16;6.70;;;2.80;;
7057;SDS011;3570;43.080;25.628;2023-07-20T16:36:00;6.60;;;2.40;;
7057;SDS011;3570;43.080;25.628;2023-07-20T16:38:44;6.05;;;3.00;;
7057;SDS011;3570;43.080;25.628;2023-07-20T16:41:29;5.45;;;2.65;;
7057;SDS011;3570;43.080;25.628;2023-07-20T16:44:13;8.65;;;3.33;;
7057;SDS011;3570;43.080;25.628;2023-07-20T16:46:57;4.85;;;2.80;;
7057;SDS011;3570;43.080;25.628;2023-07-20T16:49:41;7.90;;;3.15;;
7057;SDS011;3570;43.080;25.628;2023-07-20T16:52:26;8.80;;;3.35;;
7057;SDS011;3570;43.080;25.628;2023-07-20T16:55:14;5.25;;;2.78;;
7057;SDS011;3570;43.080;25.628;2023-07-20T16:57:58;8.20;;;3.33;;
7057;SDS011;3570;43.080;25.628;2023-07-20T17:00:43;6.68;;;2.88;;
7057;SDS011;3570;43.080;25.628;2023-07-20T17:03:29;9.45;;;2.92;;
7057;SDS011;3570;43.080;25.628;2023-07-20T17:06:14;10.00;;;3.00;;
7057;SDS011;3570;43.080;25.628;2023-07-20T17:08:58;5.82;;;2.47;;